Time;durP1;ratioP1;P1;durP2;ratioP2;P2;SDS_P1;SDS_P2;PMS_P1;PMS_P2;Temp;Humidity;BMP_temperature;BMP_pressure;BME280_temperature;BME280_humidity;BME280_pressure;Samples;Min_cycle;Max_cycle;Signal;HPM_P1;HPM_P2
2023/04/23 03:02:41;;;;;;;;;;;20.10;48.30;;;;;;4960218;28;46413;-58
2023/04/23 03:05:06;;;;;;;;;;;20.10;48.40;;;;;;4946904;28;45403;-63
2023/04/23 03:07:32;;;;;;;;;;;20.10;48.30;;;;;;4927320;28;46538;-58
2023/04/23 03:09:57;;;;;;;;;;;20.10;48.40;;;;;;4982997;28;45524;-57
2023/04/23 03:12:23;;;;;;;;;;;20.10;48.40;;;;;;4976922;28;45031;-60
2023/04/23 03:14:49;;;;;;;;;;;20.10;48.40;;;;;;4965633;28;45676;-58
2023/04/23 03:17:14;;;;;;;;;;;20.10;48.40;;;;;;4953165;22;46436;-58
2023/04/23 03:19:39;;;;;;;;;;;20.10;48.40;;;;;;4963273;28;45465;-57
2023/04/23 03:22:05;;;;;;;;;;;20.10;48.40;;;;;;4940846;28;45514;-61
2023/04/23 03:24:31;;;;;;;;;;;20.10;48.40;;;;;;4942639;28;45431;-58
2023/04/23 03:26:57;;;;;;;;;;;20.10;48.40;;;;;;4935233;28;47419;-59
2023/04/23 03:29:22;;;;;;;;;;;20.10;48.40;;;;;;4945686;28;45591;-61
2023/04/23 03:31:48;;;;;;;;;;;20.10;48.50;;;;;;4934606;28;45308;-63
2023/04/23 03:34:13;;;;;;;;;;;20.10;48.50;;;;;;4943969;28;45575;-61
2023/04/23 03:36:39;;;;;;;;;;;20.10;48.50;;;;;;4937492;28;46110;-60
2023/04/23 03:39:06;;;;;;;;;;;20.10;48.50;;;;;;4923472;28;45127;-59
2023/04/23 03:41:31;;;;;;;;;;;20.10;48.50;;;;;;4933403;28;45130;-62
2023/04/23 03:43:57;;;;;;;;;;;20.10;48.50;;;;;;4923999;28;45150;-59
2023/04/23 03:46:22;;;;;;;;;;;20.10;48.50;;;;;;4937136;28;45211;-59
2023/04/23 03:48:48;;;;;;;;;;;20.10;48.60;;;;;;4944021;28;44926;-61
2023/04/23 03:51:13;;;;;;;;;;;20.10;48.50;;;;;;4936224;28;45310;-62
2023/04/23 03:53:39;;;;;;;;;;;20.10;48.50;;;;;;4946236;28;45140;-61
2023/04/23 03:56:04;;;;;;;;;;;20.10;48.50;;;;;;4938211;28;46090;-59
2023/04/23 03:58:30;;;;;;;;;;;20.10;48.60;;;;;;4943246;28;44750;-60
2023/04/23 04:00:56;;;;;;;;;;;20.10;48.60;;;;;;4934211;28;45521;-62
2023/04/23 04:03:21;;;;;;;;;;;20.10;48.60;;;;;;4941278;28;45234;-62
2023/04/23 04:05:47;;;;;;;;;;;20.10;48.60;;;;;;4935343;28;45256;-61
2023/04/23 04:08:12;;;;;;;;;;;20.10;48.60;;;;;;4942031;28;45297;-61
2023/04/23 04:10:39;;;;;;;;;;;20.10;48.70;;;;;;4938528;28;45255;-61
2023/04/23 04:13:05;;;;;;;;;;;20.10;48.60;;;;;;4942875;28;45164;-60
2023/04/23 04:15:31;;;;;;;;;;;20.00;48.60;;;;;;4937343;28;45564;-61
2023/04/23 04:17:57;;;;;;;;;;;20.10;48.70;;;;;;4962672;22;45129;-60
2023/04/23 04:20:23;;;;;;;;;;;20.00;48.70;;;;;;4980432;28;45401;-61
2023/04/23 04:22:48;;;;;;;;;;;20.00;48.70;;;;;;4968211;28;45430;-62
2023/04/23 04:25:13;;;;;;;;;;;20.00;48.60;;;;;;4983093;28;45676;-61
2023/04/23 04:27:40;;;;;;;;;;;20.10;48.70;;;;;;4974172;28;45260;-62
2023/04/23 04:30:06;;;;;;;;;;;20.10;49.30;;;;;;4954468;28;45424;-62
2023/04/23 04:32:32;;;;;;;;;;;20.10;48.70;;;;;;4916181;23;44866;-59
2023/04/23 04:34:57;;;;;;;;;;;20.00;48.70;;;;;;4901484;28;46793;-60
2023/04/23 04:37:23;;;;;;;;;;;20.00;48.70;;;;;;4925711;28;45309;-60
2023/04/23 04:39:49;;;;;;;;;;;20.00;48.70;;;;;;4908269;28;45283;-56
2023/04/23 04:42:14;;;;;;;;;;;20.00;48.70;;;;;;4892698;28;45710;-60
2023/04/23 04:44:41;;;;;;;;;;;20.00;48.70;;;;;;4881135;28;47194;-61
2023/04/23 04:47:06;;;;;;;;;;;20.00;48.80;;;;;;4903543;28;45907;-59
2023/04/23 04:49:32;;;;;;;;;;;20.00;48.90;;;;;;4912327;28;45023;-61
2023/04/23 04:51:57;;;;;;;;;;;20.00;48.90;;;;;;4945669;23;45426;-59
2023/04/23 04:54:23;;;;;;;;;;;20.00;48.90;;;;;;4967131;28;46392;-62
2023/04/23 04:56:48;;;;;;;;;;;20.00;48.90;;;;;;4963870;28;45310;-60
2023/04/23 04:59:14;;;;;;;;;;;20.00;48.90;;;;;;4969135;28;45256;-60
2023/04/23 05:01:39;;;;;;;;;;;20.00;48.90;;;;;;4956560;28;45344;-62
2023/04/23 05:04:05;;;;;;;;;;;20.00;48.90;;;;;;4967309;28;47397;-60
2023/04/23 05:06:31;;;;;;;;;;;20.00;48.90;;;;;;4944470;28;45223;-62
2023/04/23 05:08:56;;;;;;;;;;;20.00;48.90;;;;;;4968167;28;46021;-60
2023/04/23 05:11:22;;;;;;;;;;;20.00;48.90;;;;;;4943722;28;45829;-60
2023/04/23 05:13:47;;;;;;;;;;;20.00;48.90;;;;;;4971117;28;45853;-62
2023/04/23 05:16:13;;;;;;;;;;;20.00;48.90;;;;;;4962065;28;45490;-62
2023/04/23 05:18:39;;;;;;;;;;;20.00;49.10;;;;;;4967548;28;46243;-60
2023/04/23 05:21:05;;;;;;;;;;;20.00;48.90;;;;;;4938325;28;45990;-60
2023/04/23 05:23:31;;;;;;;;;;;20.00;48.90;;;;;;4947837;28;45895;-57
2023/04/23 05:25:57;;;;;;;;;;;20.00;48.90;;;;;;4960342;28;45275;-60
2023/04/23 05:28:23;;;;;;;;;;;20.00;48.90;;;;;;4948614;28;45275;-60
2023/04/23 05:30:49;;;;;;;;;;;20.00;48.90;;;;;;4938678;28;44718;-61
2023/04/23 05:33:14;;;;;;;;;;;20.00;48.90;;;;;;4945578;28;45146;-62
2023/04/23 05:35:40;;;;;;;;;;;20.00;48.90;;;;;;4962292;28;46344;-60
2023/04/23 05:38:06;;;;;;;;;;;20.00;48.90;;;;;;4961006;28;45489;-61
2023/04/23 05:40:31;;;;;;;;;;;20.00;48.90;;;;;;4942149;28;45410;-61
2023/04/23 05:42:57;;;;;;;;;;;20.00;48.90;;;;;;4961658;28;45272;-61
2023/04/23 05:45:23;;;;;;;;;;;20.00;48.90;;;;;;4955598;28;45195;-62
2023/04/23 05:47:48;;;;;;;;;;;20.00;48.90;;;;;;4964520;28;45548;-62
2023/04/23 05:50:13;;;;;;;;;;;20.00;48.90;;;;;;4960304;28;45491;-62
2023/04/23 05:52:39;;;;;;;;;;;20.00;48.90;;;;;;4948450;28;45582;-62
2023/04/23 05:55:05;;;;;;;;;;;20.00;48.90;;;;;;4928629;28;45157;-65
2023/04/23 05:57:35;;;;;;;;;;;20.00;48.90;;;;;;4947718;28;44618;-57
2023/04/23 06:00:00;;;;;;;;;;;20.00;48.90;;;;;;4932403;28;45654;-62
2023/04/23 06:02:27;;;;;;;;;;;20.00;48.90;;;;;;4951647;28;45860;-61
2023/04/23 06:04:52;;;;;;;;;;;20.00;48.90;;;;;;4949821;28;45315;-59
2023/04/23 06:07:18;;;;;;;;;;;20.00;48.90;;;;;;4959218;28;45507;-59
2023/04/23 06:09:43;;;;;;;;;;;20.00;48.90;;;;;;4963825;28;45532;-58
2023/04/23 06:12:09;;;;;;;;;;;20.00;48.90;;;;;;4941835;28;48027;-59
2023/04/23 06:14:34;;;;;;;;;;;20.00;48.90;;;;;;4965718;28;45334;-61
2023/04/23 06:17:00;;;;;;;;;;;20.00;48.90;;;;;;4926162;28;45478;-59
2023/04/23 06:19:26;;;;;;;;;;;20.00;48.90;;;;;;4945371;28;45720;-61
2023/04/23 06:21:52;;;;;;;;;;;20.00;48.90;;;;;;4955947;28;46223;-62
2023/04/23 06:24:17;;;;;;;;;;;20.00;48.90;;;;;;4946754;28;44781;-61
2023/04/23 06:26:43;;;;;;;;;;;20.00;48.90;;;;;;4943443;28;45409;-63
2023/04/23 06:29:08;;;;;;;;;;;20.00;48.90;;;;;;4962689;28;45673;-60
2023/04/23 06:31:34;;;;;;;;;;;20.00;48.90;;;;;;4953678;28;45360;-62
2023/04/23 06:34:00;;;;;;;;;;;20.10;48.90;;;;;;4964097;28;45225;-60
2023/04/23 06:36:25;;;;;;;;;;;20.10;48.90;;;;;;4956512;28;45654;-61
2023/04/23 06:38:51;;;;;;;;;;;20.10;48.90;;;;;;4963869;28;45602;-61
2023/04/23 06:41:16;;;;;;;;;;;20.00;48.90;;;;;;4954565;28;45339;-62
2023/04/23 06:43:42;;;;;;;;;;;20.00;48.90;;;;;;4946937;28;45349;-59
2023/04/23 06:46:07;;;;;;;;;;;20.00;48.90;;;;;;4956184;28;45249;-59
2023/04/23 06:48:33;;;;;;;;;;;20.00;48.90;;;;;;4964793;28;45456;-61
2023/04/23 06:50:59;;;;;;;;;;;20.00;48.90;;;;;;4959461;28;46707;-60
2023/04/23 06:53:24;;;;;;;;;;;20.00;48.90;;;;;;4960038;28;45341;-59
2023/04/23 06:55:50;;;;;;;;;;;20.00;48.90;;;;;;4957009;28;46219;-60
2023/04/23 06:58:16;;;;;;;;;;;20.00;49.00;;;;;;4965788;28;45263;-60
2023/04/23 07:00:41;;;;;;;;;;;20.00;49.00;;;;;;4953642;28;45535;-60
2023/04/23 07:03:07;;;;;;;;;;;20.00;49.00;;;;;;4962092;28;45310;-59
2023/04/23 07:05:32;;;;;;;;;;;20.00;49.10;;;;;;4956155;28;45002;-61
2023/04/23 07:07:58;;;;;;;;;;;20.00;49.00;;;;;;4961131;28;45308;-60
2023/04/23 07:10:23;;;;;;;;;;;20.00;49.00;;;;;;4954610;28;45813;-59
2023/04/23 07:12:49;;;;;;;;;;;20.00;49.00;;;;;;4944904;28;45323;-61
2023/04/23 07:15:14;;;;;;;;;;;20.00;49.00;;;;;;4957797;28;46253;-62
2023/04/23 07:17:40;;;;;;;;;;;20.00;49.00;;;;;;4963040;28;44944;-61
2023/04/23 07:20:07;;;;;;;;;;;20.00;49.00;;;;;;4961292;28;45263;-61
2023/04/23 07:22:33;;;;;;;;;;;20.00;49.00;;;;;;4927950;28;45406;-61
2023/04/23 07:24:58;;;;;;;;;;;20.00;49.00;;;;;;4966505;22;45234;-62
2023/04/23 07:27:24;;;;;;;;;;;20.00;49.10;;;;;;4952320;28;45693;-60
2023/04/23 07:29:49;;;;;;;;;;;20.00;49.10;;;;;;4967253;28;45550;-58
2023/04/23 07:32:15;;;;;;;;;;;20.00;49.10;;;;;;4923250;28;45615;-60
2023/04/23 07:34:40;;;;;;;;;;;20.00;49.00;;;;;;4967315;28;44744;-62
2023/04/23 07:37:06;;;;;;;;;;;20.00;49.00;;;;;;4943811;28;46114;-60
2023/04/23 07:39:31;;;;;;;;;;;20.00;49.10;;;;;;4967497;28;46561;-59
2023/04/23 07:41:57;;;;;;;;;;;20.00;49.10;;;;;;4941432;28;45162;-60
2023/04/23 07:44:22;;;;;;;;;;;20.00;49.10;;;;;;4963357;28;45667;-58
2023/04/23 07:46:48;;;;;;;;;;;20.00;49.00;;;;;;4942922;28;45713;-60
2023/04/23 07:49:14;;;;;;;;;;;20.00;49.10;;;;;;4966515;28;45690;-61
2023/04/23 07:51:40;;;;;;;;;;;20.00;49.10;;;;;;4959962;28;46294;-58
2023/04/23 07:54:07;;;;;;;;;;;20.00;49.10;;;;;;4966702;28;45438;-57
2023/04/23 07:56:32;;;;;;;;;;;20.00;49.10;;;;;;4961574;28;45612;-59
2023/04/23 07:58:58;;;;;;;;;;;20.00;49.10;;;;;;4968506;28;46416;-61
2023/04/23 08:01:24;;;;;;;;;;;20.00;49.10;;;;;;4955762;28;44934;-60
2023/04/23 08:03:49;;;;;;;;;;;20.00;49.10;;;;;;4948850;28;45166;-61
2023/04/23 08:06:15;;;;;;;;;;;20.00;49.10;;;;;;4945106;28;45671;-60
2023/04/23 08:08:40;;;;;;;;;;;20.00;49.20;;;;;;4918231;28;47038;-62
2023/04/23 08:11:06;;;;;;;;;;;20.00;49.20;;;;;;4959331;28;45235;-62
2023/04/23 08:13:31;;;;;;;;;;;20.00;49.20;;;;;;4968954;28;44766;-60
2023/04/23 08:15:57;;;;;;;;;;;20.00;49.20;;;;;;4944286;28;45594;-61
2023/04/23 08:18:22;;;;;;;;;;;20.00;49.10;;;;;;4965620;28;45708;-62
2023/04/23 08:20:48;;;;;;;;;;;20.00;49.20;;;;;;4958294;28;45357;-62
2023/04/23 08:23:13;;;;;;;;;;;20.10;49.20;;;;;;4965896;28;45428;-60
2023/04/23 08:25:39;;;;;;;;;;;20.10;49.20;;;;;;4932397;28;45650;-61
2023/04/23 08:28:04;;;;;;;;;;;20.10;49.20;;;;;;4967556;28;45974;-60
2023/04/23 08:30:30;;;;;;;;;;;20.00;49.10;;;;;;4943146;28;45344;-61
2023/04/23 08:32:55;;;;;;;;;;;20.10;49.10;;;;;;4967254;28;45009;-61
2023/04/23 08:35:21;;;;;;;;;;;20.10;49.10;;;;;;4944930;28;45442;-59
2023/04/23 08:37:47;;;;;;;;;;;20.10;49.10;;;;;;4950773;28;45827;-61
2023/04/23 08:40:12;;;;;;;;;;;20.10;48.90;;;;;;4965404;28;45530;-63
2023/04/23 08:42:42;;;;;;;;;;;20.10;49.00;;;;;;4921564;28;45026;-60
2023/04/23 08:45:08;;;;;;;;;;;20.10;48.90;;;;;;4966639;28;44903;-61
2023/04/23 08:47:34;;;;;;;;;;;20.10;48.90;;;;;;4929750;28;45218;-62
2023/04/23 08:49:59;;;;;;;;;;;20.20;49.00;;;;;;4937024;28;45347;-61
2023/04/23 08:52:25;;;;;;;;;;;20.10;48.90;;;;;;4944201;28;44685;-61
2023/04/23 08:54:51;;;;;;;;;;;20.20;48.80;;;;;;4953398;28;44875;-61
2023/04/23 08:57:17;;;;;;;;;;;20.20;48.80;;;;;;4931141;28;45560;-58
2023/04/23 08:59:43;;;;;;;;;;;20.30;48.80;;;;;;4953767;28;45723;-61
2023/04/23 09:02:09;;;;;;;;;;;20.20;48.70;;;;;;4957955;28;44930;-62
2023/04/23 09:04:35;;;;;;;;;;;20.30;48.80;;;;;;4947617;28;44878;-59
2023/04/23 09:07:00;;;;;;;;;;;20.30;48.70;;;;;;4947272;28;45551;-61
2023/04/23 09:09:26;;;;;;;;;;;20.30;48.60;;;;;;4969496;28;45339;-59
2023/04/23 09:11:52;;;;;;;;;;;20.40;48.70;;;;;;4962719;28;45850;-59
2023/04/23 09:14:17;;;;;;;;;;;20.30;48.60;;;;;;4967744;28;45683;-61
2023/04/23 09:16:43;;;;;;;;;;;20.40;48.60;;;;;;4958854;28;46275;-61
2023/04/23 09:19:09;;;;;;;;;;;20.40;48.60;;;;;;4952148;28;45808;-59
2023/04/23 09:21:35;;;;;;;;;;;20.40;48.60;;;;;;4941814;28;45930;-60
2023/04/23 09:24:03;;;;;;;;;;;20.40;48.60;;;;;;4967981;28;45010;-60
2023/04/23 09:26:29;;;;;;;;;;;20.40;48.50;;;;;;4962539;28;45581;-59
2023/04/23 09:28:54;;;;;;;;;;;20.40;48.50;;;;;;4968867;28;44912;-61
2023/04/23 09:31:20;;;;;;;;;;;20.40;48.50;;;;;;4959069;28;45334;-62
2023/04/23 09:33:50;;;;;;;;;;;20.40;48.50;;;;;;4969383;28;45252;-61
2023/04/23 09:36:15;;;;;;;;;;;20.50;48.50;;;;;;4963171;28;45310;-62
2023/04/23 09:38:41;;;;;;;;;;;20.50;48.50;;;;;;4963414;28;46017;-60
2023/04/23 09:41:20;;;;;;;;;;;20.50;48.50;;;;;;4943386;28;45385;-62
2023/04/23 09:43:46;;;;;;;;;;;20.50;48.60;;;;;;4957394;28;45129;-61
2023/04/23 09:46:12;;;;;;;;;;;20.50;48.60;;;;;;4943197;28;45379;-60
2023/04/23 09:48:41;;;;;;;;;;;20.50;48.50;;;;;;4953616;28;45581;-60
2023/04/23 09:51:07;;;;;;;;;;;20.50;48.50;;;;;;4960998;28;45313;-60
2023/04/23 09:53:39;;;;;;;;;;;20.50;48.60;;;;;;4970872;28;45503;-60
2023/04/23 09:56:05;;;;;;;;;;;20.50;48.60;;;;;;4947883;28;45997;-60
2023/04/23 09:58:31;;;;;;;;;;;20.50;48.50;;;;;;4965315;28;45608;-63
2023/04/23 10:01:04;;;;;;;;;;;20.50;48.50;;;;;;4928108;28;46362;-58
2023/04/23 10:03:30;;;;;;;;;;;20.60;48.60;;;;;;4950648;28;45723;-60
2023/04/23 10:05:56;;;;;;;;;;;20.60;48.50;;;;;;4961474;28;45869;-61
2023/04/23 10:08:21;;;;;;;;;;;20.60;48.50;;;;;;4953758;28;45410;-61
2023/04/23 10:10:47;;;;;;;;;;;20.60;48.50;;;;;;4953485;23;44927;-60
2023/04/23 10:13:12;;;;;;;;;;;20.60;48.50;;;;;;4937289;28;45057;-61
2023/04/23 10:15:38;;;;;;;;;;;20.60;48.50;;;;;;4917084;28;45746;-61
2023/04/23 10:18:03;;;;;;;;;;;20.60;48.50;;;;;;4930801;28;45254;-61
2023/04/23 10:20:29;;;;;;;;;;;20.60;48.50;;;;;;4936830;23;46433;-60
2023/04/23 10:22:55;;;;;;;;;;;20.60;48.50;;;;;;4915372;28;45322;-63
2023/04/23 10:25:20;;;;;;;;;;;20.70;48.50;;;;;;4935554;22;45584;-60
2023/04/23 10:27:46;;;;;;;;;;;20.70;48.50;;;;;;4927551;28;45532;-61
2023/04/23 10:30:13;;;;;;;;;;;20.70;48.50;;;;;;4912258;28;45373;-61
2023/04/23 10:32:38;;;;;;;;;;;20.70;48.60;;;;;;4931278;28;45362;-61
2023/04/23 10:35:05;;;;;;;;;;;20.70;48.50;;;;;;4913079;28;47103;-62
2023/04/23 10:37:30;;;;;;;;;;;20.70;48.90;;;;;;4895741;28;45234;-59
2023/04/23 10:39:58;;;;;;;;;;;20.70;48.50;;;;;;4911379;28;45539;-61
2023/04/23 10:42:24;;;;;;;;;;;20.70;48.50;;;;;;4904511;28;46860;-60
2023/04/23 10:44:52;;;;;;;;;;;20.70;48.50;;;;;;4924069;28;45790;-60
2023/04/23 10:47:19;;;;;;;;;;;20.70;48.50;;;;;;4889713;28;45828;-62
2023/04/23 10:49:44;;;;;;;;;;;20.70;48.50;;;;;;4936084;28;45547;-58
2023/04/23 10:52:13;;;;;;;;;;;20.70;48.60;;;;;;4934551;28;45373;-61
2023/04/23 10:54:40;;;;;;;;;;;20.70;48.50;;;;;;4920732;28;47347;-63
2023/04/23 10:57:06;;;;;;;;;;;20.70;48.50;;;;;;4932927;28;45329;-60
2023/04/23 10:59:34;;;;;;;;;;;20.70;48.50;;;;;;4938627;28;45231;-61
2023/04/23 11:02:06;;;;;;;;;;;20.70;48.50;;;;;;4924743;28;45358;-60
2023/04/23 11:04:32;;;;;;;;;;;20.70;48.60;;;;;;4917766;28;45987;-59
2023/04/23 11:07:03;;;;;;;;;;;20.70;48.60;;;;;;4928214;28;45689;-62
2023/04/23 11:09:29;;;;;;;;;;;20.70;48.60;;;;;;4912246;28;45767;-61
2023/04/23 11:11:56;;;;;;;;;;;20.70;48.60;;;;;;4932167;28;45128;-60
2023/04/23 11:14:32;;;;;;;;;;;20.80;48.60;;;;;;4941304;28;47171;-60
2023/04/23 11:16:57;;;;;;;;;;;20.70;48.60;;;;;;4929133;28;45623;-62
2023/04/23 11:19:23;;;;;;;;;;;20.80;48.60;;;;;;4919654;28;45402;-62
2023/04/23 11:21:54;;;;;;;;;;;20.80;48.60;;;;;;4929539;28;45550;-61
2023/04/23 11:24:23;;;;;;;;;;;20.80;48.60;;;;;;4935293;28;45420;-60
2023/04/23 11:26:53;;;;;;;;;;;20.80;48.60;;;;;;4896221;28;46776;-60
2023/04/23 11:29:20;;;;;;;;;;;20.80;48.60;;;;;;4931613;28;45330;-60
2023/04/23 11:31:45;;;;;;;;;;;20.80;48.60;;;;;;4927399;28;45229;-62
2023/04/23 11:34:11;;;;;;;;;;;20.80;48.60;;;;;;4918344;28;45209;-63
2023/04/23 11:36:36;;;;;;;;;;;20.80;48.60;;;;;;4911542;28;45252;-64
2023/04/23 11:39:02;;;;;;;;;;;20.80;48.60;;;;;;4903711;28;47251;-67
2023/04/23 11:41:29;;;;;;;;;;;20.90;48.70;;;;;;4905312;28;46028;-61
2023/04/23 11:43:57;;;;;;;;;;;20.80;48.60;;;;;;4933862;28;45574;-60
2023/04/23 11:46:23;;;;;;;;;;;20.80;48.60;;;;;;4927890;28;45286;-62
2023/04/23 11:48:48;;;;;;;;;;;20.90;48.60;;;;;;4931767;28;45492;-60
2023/04/23 11:51:14;;;;;;;;;;;20.80;48.50;;;;;;4908684;28;45621;-60
2023/04/23 11:53:45;;;;;;;;;;;20.80;48.50;;;;;;4901631;28;45162;-61
2023/04/23 11:56:10;;;;;;;;;;;20.90;48.60;;;;;;4928324;28;44880;-62
2023/04/23 11:58:36;;;;;;;;;;;20.90;48.60;;;;;;4936874;28;45252;-61
2023/04/23 12:01:01;;;;;;;;;;;20.90;48.60;;;;;;4924005;28;44798;-61
2023/04/23 12:03:28;;;;;;;;;;;20.90;48.60;;;;;;4901723;28;47372;-62
2023/04/23 12:05:55;;;;;;;;;;;20.90;48.60;;;;;;4926898;28;45345;-59
2023/04/23 12:08:20;;;;;;;;;;;20.90;48.60;;;;;;4913911;28;44827;-60
2023/04/23 12:10:52;;;;;;;;;;;20.90;48.60;;;;;;4926549;28;45207;-61
2023/04/23 12:13:18;;;;;;;;;;;20.90;48.60;;;;;;4935434;28;45321;-60
2023/04/23 12:15:45;;;;;;;;;;;20.90;48.60;;;;;;4922974;28;44932;-61
2023/04/23 12:18:10;;;;;;;;;;;20.90;48.90;;;;;;4928695;28;45602;-60
2023/04/23 12:20:36;;;;;;;;;;;21.00;48.60;;;;;;4906657;28;45858;-61
2023/04/23 12:23:05;;;;;;;;;;;20.90;48.60;;;;;;4933968;28;46339;-61
2023/04/23 12:25:34;;;;;;;;;;;20.90;48.60;;;;;;4927794;28;45214;-62
2023/04/23 12:27:59;;;;;;;;;;;20.90;48.60;;;;;;4910790;28;45211;-61
2023/04/23 12:33:00;;;;;;;;;;;20.90;48.60;;;;;;4945845;28;45544;-58
2023/04/23 12:35:36;;;;;;;;;;;20.90;48.60;;;;;;4943450;28;45632;-62
2023/04/23 12:38:03;;;;;;;;;;;21.00;48.70;;;;;;4947529;28;45506;-59
2023/04/23 12:40:29;;;;;;;;;;;20.90;48.60;;;;;;4937411;28;45229;-61
2023/04/23 12:42:54;;;;;;;;;;;21.00;48.70;;;;;;4928928;28;45874;-61
2023/04/23 12:45:20;;;;;;;;;;;20.90;48.70;;;;;;4926065;28;45234;-59
2023/04/23 12:47:46;;;;;;;;;;;20.90;48.60;;;;;;4941048;28;44809;-61
2023/04/23 12:50:11;;;;;;;;;;;20.90;48.60;;;;;;4924178;28;45989;-61
2023/04/23 12:52:37;;;;;;;;;;;20.90;48.70;;;;;;4925696;28;45622;-60
2023/04/23 12:55:03;;;;;;;;;;;21.00;48.70;;;;;;4925716;28;45152;-65
2023/04/23 12:57:32;;;;;;;;;;;20.90;48.70;;;;;;4907118;28;45466;-59
2023/04/23 12:59:57;;;;;;;;;;;20.90;48.70;;;;;;4923593;28;45532;-59
2023/04/23 13:02:23;;;;;;;;;;;21.00;48.70;;;;;;4916053;28;45261;-61
2023/04/23 13:04:48;;;;;;;;;;;21.00;48.80;;;;;;4928008;28;45468;-61
2023/04/23 13:07:14;;;;;;;;;;;21.00;48.70;;;;;;4924869;28;45237;-61
2023/04/23 13:09:40;;;;;;;;;;;20.90;48.70;;;;;;4921642;28;45615;-59
2023/04/23 13:12:06;;;;;;;;;;;21.00;48.80;;;;;;4919164;28;45961;-61
2023/04/23 13:14:31;;;;;;;;;;;21.00;48.70;;;;;;4926319;28;44957;-62
2023/04/23 13:16:57;;;;;;;;;;;21.00;48.80;;;;;;4916841;28;45730;-60
2023/04/23 13:19:23;;;;;;;;;;;21.00;48.80;;;;;;4918723;28;45197;-60
2023/04/23 13:21:48;;;;;;;;;;;21.00;48.80;;;;;;4902791;28;45871;-60
2023/04/23 13:24:14;;;;;;;;;;;21.00;48.80;;;;;;4931168;28;45324;-62
2023/04/23 13:26:39;;;;;;;;;;;21.00;48.80;;;;;;4925547;28;46192;-61
2023/04/23 13:29:05;;;;;;;;;;;21.00;48.80;;;;;;4930540;28;44853;-60
2023/04/23 13:31:30;;;;;;;;;;;21.00;48.80;;;;;;4915293;28;46256;-61
2023/04/23 13:33:56;;;;;;;;;;;21.00;49.40;;;;;;4922011;28;45267;-60
2023/04/23 13:36:22;;;;;;;;;;;21.00;48.80;;;;;;4921728;28;45240;-59
2023/04/23 13:38:48;;;;;;;;;;;21.00;48.80;;;;;;4924555;28;45546;-61
2023/04/23 13:41:13;;;;;;;;;;;21.00;48.80;;;;;;4922774;28;45868;-60
2023/04/23 13:43:39;;;;;;;;;;;21.00;48.80;;;;;;4923960;28;45757;-61
2023/04/23 13:46:04;;;;;;;;;;;21.00;48.80;;;;;;4915484;28;45584;-59
2023/04/23 13:48:30;;;;;;;;;;;21.00;48.80;;;;;;4925962;28;45362;-59
2023/04/23 13:50:59;;;;;;;;;;;21.00;48.80;;;;;;4916857;28;45638;-61
2023/04/23 13:53:25;;;;;;;;;;;21.10;48.90;;;;;;4926147;28;45297;-60
2023/04/23 13:55:50;;;;;;;;;;;21.10;48.90;;;;;;4923380;28;45397;-60
2023/04/23 13:58:15;;;;;;;;;;;21.00;48.80;;;;;;4928748;28;45422;-60
2023/04/23 14:00:41;;;;;;;;;;;21.10;48.90;;;;;;4917030;28;45208;-61
2023/04/23 14:03:07;;;;;;;;;;;21.10;48.90;;;;;;4940054;28;45980;-62
2023/04/23 14:05:33;;;;;;;;;;;21.10;48.90;;;;;;4920499;28;45540;-61
2023/04/23 14:07:58;;;;;;;;;;;21.10;48.90;;;;;;4926358;28;45350;-62
2023/04/23 14:10:24;;;;;;;;;;;21.10;48.90;;;;;;4923709;28;45324;-62
2023/04/23 14:12:49;;;;;;;;;;;21.10;48.90;;;;;;4927023;28;45250;-59
2023/04/23 14:15:16;;;;;;;;;;;21.10;48.90;;;;;;4926954;28;45267;-61
2023/04/23 14:17:43;;;;;;;;;;;21.10;48.90;;;;;;4916546;28;45321;-60
2023/04/23 14:20:09;;;;;;;;;;;21.10;48.80;;;;;;4926261;28;46266;-62
2023/04/23 14:22:35;;;;;;;;;;;21.10;48.90;;;;;;4923166;28;45361;-61
2023/04/23 14:25:07;;;;;;;;;;;21.10;48.90;;;;;;4930611;28;45608;-62
2023/04/23 14:27:33;;;;;;;;;;;21.10;48.90;;;;;;4927059;28;44746;-62
2023/04/23 14:30:01;;;;;;;;;;;21.10;48.90;;;;;;4930569;28;47130;-62
2023/04/23 14:32:33;;;;;;;;;;;21.10;48.90;;;;;;4918977;28;45800;-62
2023/04/23 14:34:58;;;;;;;;;;;21.10;48.90;;;;;;4931621;28;45600;-61
2023/04/23 14:37:24;;;;;;;;;;;21.10;48.80;;;;;;4925075;28;45506;-60
2023/04/23 14:39:49;;;;;;;;;;;21.10;48.90;;;;;;4909149;28;46984;-61
2023/04/23 14:42:15;;;;;;;;;;;21.10;48.90;;;;;;4927997;28;46449;-61
2023/04/23 14:44:41;;;;;;;;;;;21.10;48.80;;;;;;4928975;28;45585;-63
2023/04/23 14:47:08;;;;;;;;;;;21.20;48.90;;;;;;4912061;28;45779;-61
2023/04/23 14:49:34;;;;;;;;;;;21.20;48.80;;;;;;4930361;28;46637;-60
2023/04/23 14:51:59;;;;;;;;;;;21.20;48.90;;;;;;4910803;28;45075;-60
2023/04/23 14:54:25;;;;;;;;;;;21.20;48.90;;;;;;4924850;28;45446;-62
2023/04/23 14:56:50;;;;;;;;;;;21.20;48.80;;;;;;4924812;28;45264;-60
2023/04/23 14:59:16;;;;;;;;;;;21.20;48.90;;;;;;4931925;28;46156;-69
2023/04/23 15:01:42;;;;;;;;;;;21.20;48.90;;;;;;4920048;28;45709;-60
2023/04/23 15:04:08;;;;;;;;;;;21.20;48.90;;;;;;4929757;28;45890;-63
2023/04/23 15:06:34;;;;;;;;;;;21.20;48.80;;;;;;4922384;28;45639;-59
2023/04/23 15:08:59;;;;;;;;;;;21.20;48.80;;;;;;4926207;28;45658;-61
2023/04/23 15:11:25;;;;;;;;;;;21.20;48.80;;;;;;4926486;28;45217;-62
2023/04/23 15:14:22;;;;;;;;;;;21.20;48.80;;;;;;4931312;28;45269;-60
2023/04/23 15:16:48;;;;;;;;;;;21.20;48.80;;;;;;4887219;28;45313;-60
2023/04/23 15:19:16;;;;;;;;;;;21.20;48.80;;;;;;4923060;28;45474;-62
2023/04/23 15:21:41;;;;;;;;;;;21.30;48.90;;;;;;4922613;28;44795;-62
2023/04/23 15:24:07;;;;;;;;;;;21.30;48.80;;;;;;4926582;28;45572;-62
2023/04/23 15:26:33;;;;;;;;;;;21.30;48.80;;;;;;4917379;28;45366;-62
2023/04/23 15:28:59;;;;;;;;;;;21.30;48.80;;;;;;4925525;28;46685;-62
2023/04/23 15:31:24;;;;;;;;;;;21.30;48.80;;;;;;4914128;28;51707;-62
2023/04/23 15:33:50;;;;;;;;;;;21.30;48.80;;;;;;4928313;28;45169;-61
2023/04/23 15:36:15;;;;;;;;;;;21.30;48.80;;;;;;4922919;28;46267;-61
2023/04/23 15:38:41;;;;;;;;;;;21.30;48.80;;;;;;4929465;28;46149;-61
2023/04/23 15:41:06;;;;;;;;;;;21.30;48.90;;;;;;4906041;28;44714;-62
2023/04/23 15:43:32;;;;;;;;;;;21.30;48.90;;;;;;4937223;28;44787;-62
2023/04/23 15:45:59;;;;;;;;;;;21.30;48.80;;;;;;4916865;28;45580;-63
2023/04/23 15:48:25;;;;;;;;;;;21.30;48.90;;;;;;4909548;28;47287;-59
2023/04/23 15:50:51;;;;;;;;;;;21.30;48.80;;;;;;4921448;28;45513;-60
2023/04/23 15:53:18;;;;;;;;;;;21.30;48.90;;;;;;4931012;28;45659;-60
2023/04/23 15:55:44;;;;;;;;;;;21.30;48.90;;;;;;4904408;28;44897;-61
2023/04/23 15:58:09;;;;;;;;;;;21.30;48.90;;;;;;4929081;28;47327;-62
2023/04/23 16:00:35;;;;;;;;;;;21.30;48.90;;;;;;4918844;28;45578;-60
2023/04/23 16:03:03;;;;;;;;;;;21.30;48.90;;;;;;4923994;28;45261;-60
2023/04/23 16:05:31;;;;;;;;;;;21.40;48.90;;;;;;4924297;28;46515;-60
2023/04/23 16:08:00;;;;;;;;;;;21.40;48.90;;;;;;4924400;28;45421;-60
2023/04/23 16:10:28;;;;;;;;;;;21.40;48.90;;;;;;4925250;28;45206;-60
2023/04/23 16:12:53;;;;;;;;;;;21.40;48.90;;;;;;4925670;28;45356;-60
2023/04/23 16:15:19;;;;;;;;;;;21.40;48.90;;;;;;4927897;28;45568;-61
2023/04/23 16:17:45;;;;;;;;;;;21.40;48.90;;;;;;4920885;28;46297;-59
2023/04/23 16:20:11;;;;;;;;;;;21.40;49.00;;;;;;4920514;28;45226;-61
2023/04/23 16:22:36;;;;;;;;;;;21.30;48.90;;;;;;4905667;28;45749;-60
2023/04/23 16:25:02;;;;;;;;;;;21.30;49.00;;;;;;4924993;28;45728;-65
2023/04/23 16:27:28;;;;;;;;;;;21.30;49.00;;;;;;4923910;28;46754;-62
2023/04/23 16:29:53;;;;;;;;;;;21.30;49.00;;;;;;4924437;28;45697;-59
2023/04/23 16:32:19;;;;;;;;;;;21.40;49.00;;;;;;4916432;28;46204;-61
2023/04/23 16:34:45;;;;;;;;;;;21.40;49.00;;;;;;4929817;28;45261;-63
2023/04/23 16:37:14;;;;;;;;;;;21.40;49.00;;;;;;4905621;28;45385;-62
2023/04/23 16:39:41;;;;;;;;;;;21.40;49.00;;;;;;4923354;28;46100;-60
2023/04/23 16:42:06;;;;;;;;;;;21.40;48.90;;;;;;4919765;28;45749;-61
2023/04/23 16:44:32;;;;;;;;;;;21.40;49.00;;;;;;4928798;28;45849;-61
2023/04/23 16:46:58;;;;;;;;;;;21.40;49.00;;;;;;4927358;28;46048;-60
2023/04/23 16:49:23;;;;;;;;;;;21.40;49.00;;;;;;4921056;28;45628;-60
2023/04/23 16:51:48;;;;;;;;;;;21.40;49.10;;;;;;4918815;28;45365;-60
2023/04/23 16:54:14;;;;;;;;;;;21.40;49.20;;;;;;4926372;28;45503;-61
2023/04/23 16:56:41;;;;;;;;;;;21.40;49.20;;;;;;4926284;28;45886;-62
2023/04/23 16:59:06;;;;;;;;;;;21.40;49.20;;;;;;4929316;28;44953;-60
2023/04/23 17:01:32;;;;;;;;;;;21.40;49.20;;;;;;4918347;28;45454;-60
2023/04/23 17:03:57;;;;;;;;;;;21.30;49.20;;;;;;4929030;28;45012;-62
2023/04/23 17:06:23;;;;;;;;;;;21.30;49.20;;;;;;4924028;28;47043;-61
2023/04/23 17:08:48;;;;;;;;;;;21.40;49.10;;;;;;4927285;28;46104;-63
2023/04/23 17:11:14;;;;;;;;;;;21.40;49.10;;;;;;4923526;28;45692;-61
2023/04/23 17:13:42;;;;;;;;;;;21.40;49.20;;;;;;4929236;28;45885;-61